Terminal Aerodrome Forecast
Issued by NWS

Home | Current Version | Previous Version | Graphics & Text | Print | Product List | Glossary On
Versions: 1 2 3 4 5 6 7 8 9 10 11 12 13 14 15 16 17 18
000
FTUS43 KBIS 150800 AAA
TAFDIK
TAF AMD
KDIK 150841Z 1509/1606 34016KT 2SM -SN BR OVC010
      TEMPO 1512/1515 5SM -FZRASN
     FM151500 34016KT P6SM OVC015
     FM152100 33011KT P6SM OVC050=

USA.gov is the U.S. government's official web portal to all federal, state and local government web resources and services.